createdAt,value
2023-04-14T00:02:08.314Z,5.40
2023-04-14T00:04:35.896Z,5.20
2023-04-14T00:07:02.795Z,5.20
2023-04-14T00:09:30.132Z,5.30
2023-04-14T00:11:57.457Z,5.30
2023-04-14T00:14:24.387Z,5.30
2023-04-14T00:16:51.283Z,5.10
2023-04-14T00:19:18.127Z,5.10
2023-04-14T00:21:44.895Z,5.20
2023-04-14T00:24:11.657Z,5.30
2023-04-14T00:26:38.412Z,5.10
2023-04-14T00:29:05.357Z,5.10
2023-04-14T00:31:32.726Z,5.00
2023-04-14T00:33:59.575Z,4.90
2023-04-14T00:36:26.927Z,4.90
2023-04-14T00:38:53.674Z,4.90
2023-04-14T00:41:20.402Z,5.00
2023-04-14T00:43:47.162Z,5.00
2023-04-14T00:46:17.141Z,4.80
2023-04-14T00:48:44.343Z,4.70
2023-04-14T00:51:11.821Z,4.60
2023-04-14T00:53:39.854Z,4.60
2023-04-14T00:56:07.427Z,4.60
2023-04-14T00:58:34.717Z,4.60
2023-04-14T01:01:01.813Z,4.70
2023-04-14T01:03:28.704Z,4.60
2023-04-14T01:05:56.465Z,4.60
2023-04-14T01:08:23.826Z,4.50
2023-04-14T01:11:13.645Z,4.60
2023-04-14T01:13:50.303Z,4.60
2023-04-14T01:16:23.147Z,4.50
2023-04-14T01:18:59.133Z,4.50
2023-04-14T01:21:31.646Z,4.40
2023-04-14T01:24:16.705Z,4.40
2023-04-14T01:26:45.418Z,4.40
2023-04-14T01:29:30.483Z,4.30
2023-04-14T01:32:06.545Z,4.40
2023-04-14T01:34:55.996Z,4.20
2023-04-14T01:37:36.349Z,4.10
2023-04-14T01:40:11.368Z,4.30
2023-04-14T01:42:42.878Z,4.60
2023-04-14T01:45:19.437Z,4.80
2023-04-14T01:47:47.449Z,4.50
2023-04-14T01:50:16.329Z,4.20
2023-04-14T01:52:47.937Z,4.10
2023-04-14T01:55:17.410Z,4.10
2023-04-14T01:57:46.757Z,4.20
2023-04-14T02:00:16.571Z,4.00
2023-04-14T02:02:46.604Z,4.00
2023-04-14T02:05:15.669Z,4.20
2023-04-14T02:07:42.845Z,4.30
2023-04-14T02:10:11.122Z,4.50
2023-04-14T02:12:41.383Z,4.90
2023-04-14T02:15:13.499Z,4.50
2023-04-14T02:17:41.711Z,4.30
2023-04-14T02:20:11.049Z,4.00
2023-04-14T02:22:37.821Z,3.80
2023-04-14T02:25:05.381Z,3.90
2023-04-14T02:27:56.487Z,3.70
2023-04-14T02:30:33.842Z,3.60
2023-04-14T02:33:05.792Z,3.40
2023-04-14T02:35:39.852Z,3.40
2023-04-14T02:38:13.858Z,3.30
2023-04-14T02:40:42.354Z,3.30
2023-04-14T02:43:18.593Z,3.20
2023-04-14T02:45:49.151Z,3.30
2023-04-14T02:48:17.981Z,3.40
2023-04-14T02:50:48.843Z,3.60
2023-04-14T02:53:20.224Z,3.50
2023-04-14T02:55:49.146Z,3.50
2023-04-14T02:58:16.573Z,3.70
2023-04-14T03:00:44.603Z,3.70
2023-04-14T03:03:12.950Z,3.50
2023-04-14T03:05:43.693Z,3.50
2023-04-14T03:08:16.022Z,3.50
2023-04-14T03:10:47.757Z,3.50
2023-04-14T03:13:16.746Z,3.60
2023-04-14T03:15:45.696Z,3.50
2023-04-14T03:18:14.185Z,3.40
2023-04-14T03:20:43.436Z,3.40
2023-04-14T03:23:12.441Z,3.20
2023-04-14T03:25:40.504Z,3.40
2023-04-14T03:28:12.246Z,3.60
2023-04-14T03:30:51.314Z,3.40
2023-04-14T03:33:23.370Z,3.30
2023-04-14T03:35:52.835Z,3.20
2023-04-14T03:38:21.510Z,3.10
2023-04-14T03:40:49.187Z,3.10
2023-04-14T03:43:22.547Z,3.40
2023-04-14T03:45:51.666Z,3.40
2023-04-14T03:48:20.402Z,3.20
2023-04-14T03:50:49.547Z,3.20
2023-04-14T03:53:18.894Z,3.40
2023-04-14T03:55:47.946Z,3.30
2023-04-14T03:58:17.181Z,3.20
2023-04-14T04:00:45.408Z,3.00
2023-04-14T04:03:14.845Z,3.20
2023-04-14T04:05:43.076Z,3.30
2023-04-14T04:08:11.310Z,3.30
2023-04-14T04:10:39.011Z,3.20
2023-04-14T04:13:13.157Z,3.10
2023-04-14T04:15:42.058Z,3.00
2023-04-14T04:18:10.807Z,2.90
2023-04-14T04:20:40.940Z,3.00
2023-04-14T04:23:09.359Z,2.90
2023-04-14T04:25:38.265Z,2.80
2023-04-14T04:28:05.190Z,2.90
2023-04-14T04:30:33.830Z,3.00
2023-04-14T04:33:03.967Z,3.00
2023-04-14T04:35:32.490Z,3.00
2023-04-14T04:38:01.214Z,2.90
2023-04-14T04:40:28.047Z,2.80
2023-04-14T04:42:54.839Z,2.70
2023-04-14T04:45:58.669Z,2.70
2023-04-14T04:48:25.799Z,2.70
2023-04-14T04:50:52.518Z,2.70
2023-04-14T04:53:19.273Z,2.80
2023-04-14T04:55:46.105Z,2.80
2023-04-14T04:58:12.821Z,3.00
2023-04-14T05:00:39.927Z,3.10
2023-04-14T05:03:07.248Z,3.30
2023-04-14T05:05:37.294Z,3.20
2023-04-14T05:08:04.434Z,3.20
2023-04-14T05:10:31.184Z,3.30
2023-04-14T05:12:57.931Z,3.20
2023-04-14T05:15:24.754Z,3.40
2023-04-14T05:17:51.614Z,3.50
2023-04-14T05:20:18.408Z,3.70
2023-04-14T05:22:45.898Z,3.80
2023-04-14T05:25:12.692Z,3.80
2023-04-14T05:27:39.423Z,3.80
2023-04-14T05:30:06.921Z,4.00
2023-04-14T05:32:33.789Z,4.20
2023-04-14T05:35:00.624Z,4.40
2023-04-14T05:37:29.913Z,4.60
2023-04-14T05:39:56.783Z,4.80
2023-04-14T05:42:23.599Z,4.90
2023-04-14T05:44:50.468Z,4.90
2023-04-14T05:47:17.213Z,5.10
2023-04-14T05:49:43.937Z,5.00
2023-04-14T05:52:10.934Z,5.10
2023-04-14T05:54:37.781Z,5.10
2023-04-14T05:57:04.575Z,5.10
2023-04-14T05:59:31.939Z,5.30
2023-04-14T06:01:58.783Z,5.40
2023-04-14T06:04:25.797Z,5.50
2023-04-14T06:06:52.628Z,5.40
2023-04-14T06:09:19.390Z,5.40
2023-04-14T06:11:46.286Z,5.40
2023-04-14T06:14:13.071Z,5.50
2023-04-14T06:16:39.872Z,5.50
2023-04-14T06:19:06.660Z,5.60
2023-04-14T06:21:33.384Z,5.70
2023-04-14T06:24:00.328Z,5.80
2023-04-14T06:26:27.330Z,5.90
2023-04-14T06:28:54.062Z,5.80
2023-04-14T06:31:20.964Z,5.90
2023-04-14T06:33:48.216Z,5.70
2023-04-14T06:36:18.114Z,5.80
2023-04-14T06:38:45.464Z,5.80
2023-04-14T06:41:12.157Z,6.00
2023-04-14T06:43:38.917Z,5.80
2023-04-14T06:46:05.887Z,6.00
2023-04-14T06:48:32.835Z,6.00
2023-04-14T06:50:59.672Z,6.00
2023-04-14T06:53:26.514Z,6.10
2023-04-14T06:55:59.601Z,6.20
2023-04-14T06:58:28.299Z,6.30
2023-04-14T07:00:59.759Z,6.40
2023-04-14T07:03:27.761Z,6.60
2023-04-14T07:05:54.676Z,6.70
2023-04-14T07:08:21.901Z,6.80
2023-04-14T07:10:48.609Z,7.00
2023-04-14T07:13:15.605Z,7.10
2023-04-14T07:15:47.526Z,7.10
2023-04-14T07:18:14.461Z,7.20
2023-04-14T07:20:41.739Z,7.40
2023-04-14T07:23:09.421Z,7.50
2023-04-14T07:25:36.738Z,7.60
2023-04-14T07:28:04.665Z,7.60
2023-04-14T07:30:31.901Z,7.60
2023-04-14T07:32:58.864Z,7.60
2023-04-14T07:35:28.542Z,7.70
2023-04-14T07:37:55.694Z,7.80
2023-04-14T07:40:22.459Z,7.90
2023-04-14T07:42:49.206Z,7.80
2023-04-14T07:45:16.293Z,7.90
2023-04-14T07:47:43.039Z,8.10
2023-04-14T07:50:10.781Z,8.20
2023-04-14T07:52:37.564Z,8.30
2023-04-14T07:55:04.813Z,8.40
2023-04-14T07:57:33.271Z,8.40
2023-04-14T08:00:00.339Z,8.60
2023-04-14T08:02:27.344Z,8.70
2023-04-14T08:04:54.197Z,8.80
2023-04-14T08:07:21.012Z,8.90
2023-04-14T08:09:49.486Z,9.00
2023-04-14T08:12:16.258Z,9.20
2023-04-14T08:14:43.103Z,9.10
2023-04-14T08:17:09.842Z,9.30
2023-04-14T08:19:37.065Z,9.40
2023-04-14T08:22:03.809Z,9.40
2023-04-14T08:24:31.050Z,9.50
2023-04-14T08:26:57.815Z,9.60
2023-04-14T08:29:24.616Z,9.60
2023-04-14T08:31:51.425Z,9.60
2023-04-14T08:34:28.033Z,9.90
2023-04-14T08:36:56.501Z,10.10
2023-04-14T08:39:23.290Z,10.20
2023-04-14T08:41:52.808Z,10.40
2023-04-14T08:44:19.563Z,10.60
2023-04-14T08:46:51.645Z,10.70
2023-04-14T08:49:40.830Z,10.80
2023-04-14T08:52:12.949Z,10.80
2023-04-14T08:54:41.227Z,10.90
2023-04-14T08:57:14.595Z,11.10
2023-04-14T08:59:42.383Z,11.30
2023-04-14T09:02:11.004Z,11.20
2023-04-14T09:04:38.334Z,11.20
2023-04-14T09:07:05.962Z,11.30
2023-04-14T09:09:32.725Z,11.40
2023-04-14T09:12:01.995Z,11.50
2023-04-14T09:14:29.434Z,11.60
2023-04-14T09:16:57.143Z,11.80
2023-04-14T09:19:25.017Z,11.80
2023-04-14T09:21:55.031Z,11.90
2023-04-14T09:24:31.229Z,12.00
2023-04-14T09:27:08.091Z,12.20
2023-04-14T09:29:36.487Z,12.20
2023-04-14T09:32:05.034Z,12.20
2023-04-14T09:34:32.363Z,12.40
2023-04-14T09:37:04.726Z,12.50
2023-04-14T09:39:35.797Z,12.40
2023-04-14T09:42:04.235Z,12.40
2023-04-14T09:44:31.206Z,12.50
2023-04-14T09:47:05.558Z,12.80
2023-04-14T09:49:33.186Z,12.90
2023-04-14T09:52:08.366Z,13.00
2023-04-14T09:54:35.762Z,12.90
2023-04-14T09:57:02.939Z,13.00
2023-04-14T09:59:32.314Z,13.10
2023-04-14T10:02:01.197Z,13.00
2023-04-14T10:04:28.396Z,12.80
2023-04-14T10:06:56.956Z,13.00
2023-04-14T10:09:26.830Z,13.20
2023-04-14T10:12:26.128Z,13.30
2023-04-14T10:14:52.934Z,13.50
2023-04-14T10:17:19.802Z,13.50
2023-04-14T10:19:47.440Z,13.20
2023-04-14T10:22:15.172Z,13.30
2023-04-14T10:24:42.192Z,13.10
2023-04-14T10:27:09.160Z,13.10
2023-04-14T10:29:36.243Z,13.10
2023-04-14T10:32:08.939Z,13.10
2023-04-14T10:34:37.489Z,13.10
2023-04-14T10:37:14.707Z,13.00
2023-04-14T10:39:42.987Z,13.00
2023-04-14T10:42:09.999Z,12.80
2023-04-14T10:44:37.516Z,12.50
2023-04-14T10:47:07.676Z,12.40
2023-04-14T10:49:39.945Z,12.50
2023-04-14T10:52:15.489Z,12.40
2023-04-14T10:55:08.075Z,12.90
2023-04-14T10:57:43.349Z,13.30
2023-04-14T11:00:32.409Z,13.40
2023-04-14T11:03:08.372Z,13.20
2023-04-14T11:05:35.711Z,13.20
2023-04-14T11:08:16.456Z,13.40
2023-04-14T11:10:51.032Z,13.00
2023-04-14T11:13:18.111Z,12.60
2023-04-14T11:15:48.577Z,12.60
2023-04-14T11:18:46.242Z,12.80
2023-04-14T11:21:15.986Z,13.00
2023-04-14T11:23:43.536Z,13.20
2023-04-14T11:26:13.475Z,12.90
2023-04-14T11:28:42.751Z,12.80
2023-04-14T11:31:12.075Z,13.00
2023-04-14T11:33:41.577Z,13.40
2023-04-14T11:36:11.201Z,13.40
2023-04-14T11:38:40.608Z,13.20
2023-04-14T11:41:08.360Z,13.20
2023-04-14T11:43:35.712Z,13.40
2023-04-14T11:46:05.581Z,13.70
2023-04-14T11:48:32.397Z,13.70
2023-04-14T11:51:03.651Z,13.50
2023-04-14T11:53:30.964Z,13.20
2023-04-14T11:55:58.044Z,13.10
2023-04-14T11:58:27.241Z,13.10
2023-04-14T12:00:56.310Z,13.10
2023-04-14T12:03:31.638Z,13.20
2023-04-14T12:06:00.672Z,13.40
2023-04-14T12:08:30.249Z,13.70
2023-04-14T12:10:57.805Z,13.90
2023-04-14T12:13:25.117Z,13.70
2023-04-14T12:15:52.755Z,13.50
2023-04-14T12:21:01.265Z,13.40
2023-04-14T12:23:28.452Z,13.20
2023-04-14T12:25:55.369Z,13.10
2023-04-14T12:28:29.619Z,13.00
2023-04-14T12:31:01.474Z,13.10
2023-04-14T12:33:30.043Z,13.20
2023-04-14T12:36:06.823Z,13.20
2023-04-14T12:38:34.396Z,13.40
2023-04-14T12:41:01.536Z,13.10
2023-04-14T12:43:40.636Z,13.00
2023-04-14T12:46:08.066Z,12.80
2023-04-14T12:48:44.334Z,12.90
2023-04-14T12:51:12.952Z,13.10
2023-04-14T12:53:41.222Z,13.10
2023-04-14T12:56:08.180Z,13.20
2023-04-14T12:58:39.941Z,13.10
2023-04-14T13:01:08.116Z,13.10
2023-04-14T13:03:52.969Z,13.20
2023-04-14T13:06:24.173Z,13.30
2023-04-14T13:08:52.744Z,13.40
2023-04-14T13:11:21.247Z,13.80
2023-04-14T13:13:48.219Z,13.90
2023-04-14T13:16:17.691Z,14.00
2023-04-14T13:18:47.470Z,14.10
2023-04-14T13:21:14.351Z,13.90
2023-04-14T13:23:41.552Z,13.70
2023-04-14T13:26:08.823Z,13.60
2023-04-14T13:28:36.812Z,13.50
2023-04-14T13:31:03.760Z,13.50
2023-04-14T13:33:31.087Z,13.30
2023-04-14T13:35:57.941Z,13.30
2023-04-14T13:38:24.749Z,13.40
2023-04-14T13:40:51.474Z,13.30
2023-04-14T13:43:18.913Z,13.40
2023-04-14T13:45:46.939Z,13.30
2023-04-14T13:48:14.463Z,13.40
2023-04-14T13:50:41.565Z,13.20
2023-04-14T13:53:08.411Z,13.10
2023-04-14T13:55:38.162Z,12.90
2023-04-14T13:58:04.884Z,13.00
2023-04-14T14:00:31.730Z,13.10
2023-04-14T14:02:58.708Z,13.20
2023-04-14T14:05:25.794Z,13.10
2023-04-14T14:07:52.874Z,13.00
2023-04-14T14:10:19.883Z,13.00
2023-04-14T14:12:47.096Z,12.90
2023-04-14T14:15:13.970Z,12.90
2023-04-14T14:17:41.086Z,13.00
2023-04-14T14:20:09.193Z,13.10
2023-04-14T14:22:36.003Z,13.10
2023-04-14T14:25:17.455Z,13.10
2023-04-14T14:27:45.777Z,13.20
2023-04-14T14:30:13.045Z,13.20
2023-04-14T14:32:39.843Z,13.20
2023-04-14T14:35:07.135Z,13.20
2023-04-14T14:37:34.041Z,13.30
2023-04-14T14:40:01.057Z,13.40
2023-04-14T14:42:27.848Z,13.50
2023-04-14T14:44:54.581Z,13.40
2023-04-14T14:47:21.451Z,13.30
2023-04-14T14:49:59.026Z,13.20
2023-04-14T14:52:34.000Z,13.20
2023-04-14T14:55:01.716Z,13.00
2023-04-14T14:57:29.673Z,13.20
2023-04-14T14:59:57.251Z,13.30
2023-04-14T15:02:25.590Z,13.60
2023-04-14T15:04:53.375Z,13.60
2023-04-14T15:07:20.807Z,13.60
2023-04-14T15:09:47.685Z,13.40
2023-04-14T15:12:14.612Z,13.40
2023-04-14T15:14:41.335Z,13.30
2023-04-14T15:17:08.268Z,13.40
2023-04-14T15:19:35.055Z,13.40
2023-04-14T15:22:01.844Z,13.40
2023-04-14T15:24:28.625Z,13.40
2023-04-14T15:26:55.944Z,13.50
2023-04-14T15:29:25.079Z,13.50
2023-04-14T15:31:52.037Z,13.60
2023-04-14T15:34:18.884Z,13.20
2023-04-14T15:36:45.822Z,13.20
2023-04-14T15:39:12.575Z,13.10
2023-04-14T15:41:39.278Z,13.10
2023-04-14T15:44:06.165Z,13.10
2023-04-14T15:46:33.044Z,13.00
2023-04-14T15:48:59.885Z,13.30
2023-04-14T15:51:26.865Z,13.50
2023-04-14T15:53:53.742Z,13.30
2023-04-14T15:56:23.293Z,13.40
2023-04-14T15:58:50.461Z,13.40
2023-04-14T16:01:17.529Z,13.60
2023-04-14T16:03:44.648Z,13.60
2023-04-14T16:06:11.534Z,13.40
2023-04-14T16:08:38.381Z,13.50
2023-04-14T16:11:05.217Z,13.60
2023-04-14T16:13:32.071Z,13.40
2023-04-14T16:15:58.930Z,13.50
2023-04-14T16:18:25.884Z,13.50
2023-04-14T16:20:53.465Z,13.40
2023-04-14T16:23:20.637Z,13.20
2023-04-14T16:25:50.621Z,13.20
2023-04-14T16:28:17.556Z,13.40
2023-04-14T16:30:45.776Z,13.20
2023-04-14T16:33:12.759Z,13.20
2023-04-14T16:35:39.678Z,13.20
2023-04-14T16:38:08.680Z,13.20
2023-04-14T16:40:36.523Z,13.20
2023-04-14T16:43:03.863Z,13.10
2023-04-14T16:45:34.816Z,13.00
2023-04-14T16:48:02.008Z,13.00
2023-04-14T16:50:29.483Z,12.80
2023-04-14T16:52:56.627Z,12.90
2023-04-14T16:55:23.478Z,13.00
2023-04-14T16:57:50.804Z,13.00
2023-04-14T17:00:18.077Z,12.90
2023-04-14T17:02:44.901Z,13.10
2023-04-14T17:05:15.774Z,13.10
2023-04-14T17:07:43.054Z,13.00
2023-04-14T17:10:10.556Z,12.80
2023-04-14T17:12:37.320Z,12.90
2023-04-14T17:15:04.610Z,12.80
2023-04-14T17:17:31.997Z,12.80
2023-04-14T17:19:59.347Z,12.90
2023-04-14T17:22:27.598Z,12.90
2023-04-14T17:24:54.914Z,12.90
2023-04-14T17:27:22.271Z,12.70
2023-04-14T17:29:49.069Z,12.60
2023-04-14T17:32:16.702Z,12.60
2023-04-14T17:34:43.674Z,12.60
2023-04-14T17:37:10.732Z,12.60
2023-04-14T17:39:37.602Z,12.50
2023-04-14T17:42:04.593Z,12.40
2023-04-14T17:44:33.257Z,12.50
2023-04-14T17:47:11.153Z,12.30
2023-04-14T17:49:38.345Z,12.30
2023-04-14T17:52:06.967Z,12.40
2023-04-14T17:54:34.139Z,12.50
2023-04-14T17:57:00.900Z,12.40
2023-04-14T17:59:27.997Z,12.20
2023-04-14T18:01:54.838Z,12.10
2023-04-14T18:04:21.755Z,12.00
2023-04-14T18:06:48.887Z,11.90
2023-04-14T18:09:15.852Z,11.80
2023-04-14T18:11:42.854Z,11.60
2023-04-14T18:14:09.580Z,11.50
2023-04-14T18:16:36.330Z,11.40
2023-04-14T18:19:03.521Z,11.30
2023-04-14T18:21:30.313Z,11.30
2023-04-14T18:26:27.205Z,11.10
2023-04-14T18:28:55.069Z,11.10
2023-04-14T18:31:21.861Z,11.10
2023-04-14T18:33:48.981Z,11.00
2023-04-14T18:36:15.728Z,10.90
2023-04-14T18:38:42.445Z,10.90
2023-04-14T18:41:10.265Z,10.80
2023-04-14T18:43:37.030Z,10.70
2023-04-14T18:46:03.990Z,10.70
2023-04-14T18:48:30.964Z,10.60
2023-04-14T18:51:01.619Z,10.60
2023-04-14T18:53:28.776Z,10.50
2023-04-14T18:55:55.684Z,10.50
2023-04-14T18:58:22.922Z,10.40
2023-04-14T19:00:49.711Z,10.40
2023-04-14T19:03:16.959Z,10.40
2023-04-14T19:05:44.094Z,10.50
2023-04-14T19:08:10.888Z,10.50
2023-04-14T19:10:37.723Z,10.40
2023-04-14T19:13:04.503Z,10.50
2023-04-14T19:15:31.324Z,10.50
2023-04-14T19:17:58.143Z,10.40
2023-04-14T19:20:25.388Z,10.40
2023-04-14T19:22:52.189Z,10.40
2023-04-14T19:25:21.791Z,10.40
2023-04-14T19:27:48.513Z,10.30
2023-04-14T19:30:15.256Z,10.30
2023-04-14T19:32:42.182Z,10.20
2023-04-14T19:35:10.031Z,10.30
2023-04-14T19:37:38.347Z,10.20
2023-04-14T19:40:06.572Z,10.20
2023-04-14T19:42:33.975Z,10.20
2023-04-14T19:45:01.138Z,10.20
2023-04-14T19:47:28.140Z,10.20
2023-04-14T19:49:55.324Z,10.30
2023-04-14T19:52:22.512Z,10.30
2023-04-14T19:54:49.721Z,10.20
2023-04-14T19:57:16.917Z,10.20
2023-04-14T19:59:44.324Z,10.20
2023-04-14T20:02:13.296Z,10.20
2023-04-14T20:04:40.639Z,10.20
2023-04-14T20:07:07.724Z,10.20
2023-04-14T20:09:34.755Z,10.10
2023-04-14T20:12:02.448Z,10.10
2023-04-14T20:14:29.415Z,10.20
2023-04-14T20:16:56.761Z,10.20
2023-04-14T20:19:24.424Z,10.20
2023-04-14T20:21:51.318Z,10.20
2023-04-14T20:24:18.744Z,10.10
2023-04-14T20:26:45.621Z,10.20
2023-04-14T20:29:12.969Z,10.10
2023-04-14T20:31:41.665Z,10.10
2023-04-14T20:34:09.145Z,10.00
2023-04-14T20:36:37.417Z,10.00
2023-04-14T20:39:06.016Z,10.00
2023-04-14T20:41:36.565Z,9.90
2023-04-14T20:44:04.546Z,9.90
2023-04-14T20:46:31.367Z,9.90
2023-04-14T20:48:58.206Z,10.00
2023-04-14T20:51:25.209Z,10.10
2023-04-14T20:53:51.983Z,10.50
2023-04-14T20:56:18.697Z,10.90
2023-04-14T20:58:45.783Z,10.50
2023-04-14T21:01:12.712Z,10.20
2023-04-14T21:03:39.749Z,10.00
2023-04-14T21:06:06.739Z,9.90
2023-04-14T21:08:33.558Z,10.00
2023-04-14T21:11:15.835Z,9.90
2023-04-14T21:15:26.437Z,9.80
2023-04-14T21:16:31.009Z,9.70
2023-04-14T21:18:57.826Z,9.70
2023-04-14T21:21:24.736Z,9.80
2023-04-14T21:23:51.491Z,9.80
2023-04-14T21:26:18.515Z,9.70
2023-04-14T21:28:45.740Z,9.80
2023-04-14T21:31:12.547Z,9.60
2023-04-14T21:33:41.585Z,9.60
2023-04-14T21:36:09.771Z,9.60
2023-04-14T21:38:37.847Z,9.50
2023-04-14T21:41:05.057Z,9.50
2023-04-14T21:43:32.593Z,9.40
2023-04-14T21:45:59.538Z,9.50
2023-04-14T21:48:26.470Z,9.40
2023-04-14T21:50:53.216Z,9.40
2023-04-14T21:53:20.759Z,9.40
2023-04-14T21:55:47.617Z,9.20
2023-04-14T21:58:34.284Z,9.10
2023-04-14T22:01:01.607Z,9.00
2023-04-14T22:03:28.618Z,8.90
2023-04-14T22:05:55.516Z,8.80
2023-04-14T22:08:23.656Z,8.80
2023-04-14T22:10:50.390Z,8.80
2023-04-14T22:13:17.186Z,8.80
2023-04-14T22:15:44.025Z,8.60
2023-04-14T22:18:11.572Z,8.40
2023-04-14T22:20:39.249Z,8.40
2023-04-14T22:23:06.102Z,8.20
2023-04-14T22:25:33.256Z,8.10
2023-04-14T22:28:00.007Z,8.00
2023-04-14T22:30:26.792Z,7.90
2023-04-14T22:32:53.736Z,7.90
2023-04-14T22:35:20.859Z,7.80
2023-04-14T22:37:47.895Z,7.70
2023-04-14T22:40:14.777Z,7.80
2023-04-14T22:42:41.890Z,7.80
2023-04-14T22:45:09.133Z,8.00
2023-04-14T22:47:36.316Z,7.90
2023-04-14T22:50:03.189Z,8.00
2023-04-14T22:52:30.712Z,8.10
2023-04-14T22:54:57.454Z,8.00
2023-04-14T22:57:24.301Z,8.00
2023-04-14T22:59:51.916Z,8.00
2023-04-14T23:02:18.894Z,8.00
2023-04-14T23:04:46.278Z,8.00
2023-04-14T23:07:13.621Z,8.00
2023-04-14T23:09:40.350Z,8.20
2023-04-14T23:12:07.200Z,8.10
2023-04-14T23:14:34.151Z,8.20
2023-04-14T23:17:00.942Z,8.20
2023-04-14T23:19:27.757Z,8.10
2023-04-14T23:21:54.544Z,8.10
2023-04-14T23:24:22.373Z,8.20
2023-04-14T23:26:49.253Z,8.10
2023-04-14T23:29:16.087Z,8.10
2023-04-14T23:31:42.865Z,8.20
2023-04-14T23:34:10.964Z,8.20
2023-04-14T23:36:38.003Z,8.20
2023-04-14T23:39:05.625Z,8.20
2023-04-14T23:41:32.579Z,8.20
2023-04-14T23:43:59.367Z,8.20
2023-04-14T23:46:26.483Z,8.20
2023-04-14T23:48:53.360Z,8.30
2023-04-14T23:51:22.464Z,8.30
2023-04-14T23:53:49.555Z,8.30
2023-04-14T23:56:16.507Z,8.30
2023-04-14T23:58:43.929Z,8.40
